Terminal Aerodrome Forecast
Issued by NWS

Home | Current Version | Previous Version | Text Only | Print | Product List | Glossary On
Versions: 1 2 3 4 5 6 7 8 9 10 11 12
969
FTUS46 KSTO 241123
TAFSCK
TAF
KSCK 241123Z 2412/2512 27005KT P6SM SCT250
     FM242300 30011KT P6SM SCT150
     FM250600 28006KT P6SM SCT150=

USA.gov is the U.S. government's official web portal to all federal, state and local government web resources and services.